Overview Statistics Trail Chart Weather Telemetry Raw packets
 

This is the latest recevied weather packets stored in our database for station/object DL2GFH-3. If no packets are shown the sender has not sent any weather packets the latest 10 day(s).

<< 11 12 13 14 15 16 17 >>
Time Temp. Humidity Pressure Rain* Wind** Luminosity Snow
1777457068 26.67° C 20% 1018.4 hPa - - - -
1777456162 26.67° C 20% 1018.3 hPa - - - -
1777455257 26.67° C 20% 1018.3 hPa - - - -
1777454351 26.11° C 20% 1018.3 hPa - - - -
1777453446 26.11° C 20% 1018.4 hPa - - - -
1777452540 26.11° C 20% 1018.4 hPa - - - -
1777451635 25.56° C 20% 1018.5 hPa - - - -
1777450730 25° C 21% 1018.5 hPa - - - -
1777449824 23.89° C 22% 1018.6 hPa - - - -
1777448919 21.67° C 24% 1018.6 hPa - - - -
1777448013 21.67° C 24% 1018.5 hPa - - - -
1777447108 22.78° C 23% 1018.5 hPa - - - -
1777445297 22.22° C 23% 1018.3 hPa - - - -
1777444392 22.22° C 24% 1018.2 hPa - - - -
1777443486 22.22° C 24% 1018.1 hPa - - - -
1777442581 22.78° C 23% 1018 hPa - - - -
1777441675 21.67° C 24% 1017.9 hPa - - - -
1777440770 22.78° C 23% 1017.7 hPa - - - -
1777439865 23.33° C 22% 1017.7 hPa - - - -
1777438959 21.11° C 25% 1017.6 hPa - - - -
1777438054 21.67° C 25% 1017.5 hPa - - - -
1777437148 22.22° C 24% 1017.3 hPa - - - -
1777436243 23.33° C 23% 1017.2 hPa - - - -
1777435338 23.33° C 23% 1017.1 hPa - - - -
1777434432 20.56° C 27% 1017 hPa - - - -

* Rain since midnight (hover to see other rain measurements)
** Current wind speed in m/s (hover to see current wind gust speed)